^^

..:: Storico WU ::..




Lo storico viene creato da WUnderground con i dati che la stazione Meteomincio invia al loro server. L' aggiornamento viene fatto ogni 5 minuti circa, tuttavia possono esserci intervalli pi¨ ampi a causa di errori, interruzioni di servizio o problemi nell' invio tramite FTP.


Storico stazione MeteoMincio
Giorno Sommario per Febbario 27, 2022 Unità:  Inglese    Metrico   Entrambi
Giorno Settimana Mese Anno
  Max: Min: Media:
Temperatura: 55 °F 29.8 °F 42.8 °F
Dew Point: 30.7 °F 18.5 °F 25.3 °F
Umidità: 86% 24.7% 55%
Velocità vento: 8.4mph 0mph 2mph
Raffica: 12mph - -
Direzione- - SSW
Pressione: 30.4 in 30.3 in -
Precipitazioni: 0 in    
 
 
Tabulato Dati per Febbario 27, 2022
Ora Temperatura Dew Point Pressione Direzione Velocità vento Raffica Umidità Intensità pioggia (oraria) Info solare Situazione
00:00 35.1 °F 29.5 °F 30.3 in Calm     80% 0 in 0 W/m2
00:19 34.9 °F 29.7 °F 30.3 in Calm     80.5% 0 in 0 W/m2
00:20 35.1 °F 29.8 °F 30.3 in Calm     81% 0 in 0 W/m2
00:29 35.6 °F 29.8 °F 30.3 in Calm     79.5% 0 in 0 W/m2
00:34 36 °F 29.8 °F 30.3 in Calm     78.2% 0 in 0 W/m2
00:39 36.1 °F 30.4 °F 30.3 in Calm     79% 0 in 0 W/m2
00:43 36.1 °F 30.2 °F 30.3 in Calm     79% 0 in 0 W/m2
00:49 36.3 °F 30.4 °F 30.3 in Calm     78.9% 0 in 0 W/m2
00:54 36.7 °F 30.6 °F 30.3 in Calm     78.1% 0 in 0 W/m2
00:59 36.7 °F 30.6 °F 30.3 in Calm     78.5% 0 in 0 W/m2
01:00 36.7 °F 30.7 °F 30.3 in Calm     79% 0 in 0 W/m2
01:09 36.3 °F 30.2 °F 30.3 in Calm     78% 0 in 0 W/m2
01:10 36.1 °F 29.8 °F 30.3 in Calm     78% 0 in 0 W/m2
01:19 35.4 °F 29.5 °F 30.3 in WNW 1 mph 3.5 mph 78.8% 0 in 0 W/m2
01:23 35.2 °F 29.3 °F 30.3 in WNW 1.9 mph 3.5 mph 79% 0 in 0 W/m2
01:25 35.2 °F 29.3 °F 30.3 in WNW 1.9 mph 3.5 mph 79% 0 in 0 W/m2
01:30 35.8 °F 30.2 °F 30.3 in WNW 2.1 mph 3.5 mph 80% 0 in 0 W/m2
01:39 35.8 °F 30.2 °F 30.3 in WNW 1.9 mph 3.5 mph 80% 0 in 0 W/m2
01:40 36 °F 30.2 °F 30.3 in WNW 1.5 mph 3.5 mph 80% 0 in 0 W/m2
01:49 35.4 °F 29.8 °F 30.3 in West 1 mph 3.5 mph 80% 0 in 0 W/m2
01:54 35.1 °F 29.7 °F 30.3 in West 1.2 mph 3.5 mph 80.6% 0 in 0 W/m2
01:59 34.7 °F 29.7 °F 30.3 in West 2 mph 3.5 mph 81.7% 0 in 0 W/m2
02:00 34.7 °F 29.7 °F 30.3 in West 2 mph 3 mph 82% 0 in 0 W/m2
02:34 34.7 °F 30.2 °F 30.3 in NW 1.1 mph 3.5 mph 83% 0 in 0 W/m2
02:39 35.1 °F 30.2 °F 30.3 in WNW 0.1 mph 3 mph 82.6% 0 in 0 W/m2
02:44 35.1 °F 30.2 °F 30.3 in Calm   2 mph 82% 0 in 0 W/m2
02:49 35.1 °F 30.2 °F 30.3 in NW 0.9 mph 3.5 mph 82% 0 in 0 W/m2
02:53 35.2 °F 30.4 °F 30.3 in NW 1.8 mph 3.5 mph 82% 0 in 0 W/m2
02:59 35.1 °F 30 °F 30.3 in WNW 1.4 mph 3.5 mph 81.2% 0 in 0 W/m2
03:04 34.5 °F 29.7 °F 30.3 in WNW 0.7 mph 3 mph 81.9% 0 in 0 W/m2
03:09 34.3 °F 29.7 °F 30.3 in North 0.7 mph 3.5 mph 82.6% 0 in 0 W/m2
03:14 34.5 °F 29.8 °F 30.3 in NNW 2.2 mph 3.5 mph 83% 0 in 0 W/m2
03:19 34.5 °F 30 °F 30.3 in NNW 2.5 mph 4 mph 83% 0 in 0 W/m2
03:24 34.9 °F 30.2 °F 30.3 in North 2.1 mph 4 mph 82.7% 0 in 0 W/m2
03:29 35.4 °F 30.2 °F 30.3 in NNW 1.2 mph 3.5 mph 81.2% 0 in 0 W/m2
03:34 35.4 °F 30 °F 30.3 in NNW 0.7 mph 3 mph 81% 0 in 0 W/m2
03:39 34.9 °F 29.7 °F 30.3 in NNW 1.5 mph 3 mph 80.8% 0 in 0 W/m2
03:44 34.5 °F 29.5 °F 30.3 in NW 1.4 mph 3.5 mph 81.6% 0 in 0 W/m2
03:49 34.3 °F 29.5 °F 30.3 in NNW 1.4 mph 3.5 mph 82.3% 0 in 0 W/m2
03:54 34.3 °F 29.7 °F 30.3 in North 1.5 mph 3 mph 82.3% 0 in 0 W/m2
03:59 34 °F 29.1 °F 30.3 in NNE 1 mph 3.5 mph 82% 0 in 0 W/m2
04:00 33.6 °F 28.8 °F 30.3 in North 1 mph 3 mph 82% 0 in 0 W/m2
04:23 32.5 °F 28.4 °F 30.3 in NNW 0.6 mph 2.3 mph 84.9% 0 in 0 W/m2
04:28 32.4 °F 28.4 °F 30.3 in NW 0.8 mph 2 mph 84.7% 0 in 0 W/m2
04:33 32.4 °F 28 °F 30.3 in WNW 0.9 mph 2.3 mph 84% 0 in 0 W/m2
04:39 31.1 °F 27.1 °F 30.3 in West 1 mph 3.5 mph 85% 0 in 0 W/m2
04:40 30.7 °F 26.8 °F 30.3 in West 2.2 mph 4 mph 85% 0 in 0 W/m2
04:49 30.2 °F 26.2 °F 30.3 in West 2.4 mph 4 mph 85.1% 0 in 0 W/m2
04:54 29.8 °F 26.1 °F 30.3 in WNW 3.2 mph 4 mph 86% 0 in 0 W/m2
04:59 31.1 °F 27.1 °F 30.3 in West 1.7 mph 3.5 mph 85.2% 0 in 0 W/m2
05:09 30.9 °F 27 °F 30.3 in WNW 1.9 mph 4 mph 85% 0 in 0 W/m2
05:14 31.3 °F 27.1 °F 30.3 in WNW 2.7 mph 4 mph 85% 0 in 0 W/m2
05:19 32 °F 27.7 °F 30.3 in WNW 2.7 mph 4 mph 84.3% 0 in 0 W/m2
05:24 32 °F 27.7 °F 30.3 in WNW 2.7 mph 4 mph 84% 0 in 0 W/m2
05:29 32 °F 27.7 °F 30.3 in WNW 2.5 mph 3.5 mph 84% 0 in 0 W/m2
05:34 32 °F 27.7 °F 30.3 in NW 2.5 mph 4 mph 84% 0 in 0 W/m2
05:39 32.2 °F 27.9 °F 30.3 in NW 2.2 mph 3.5 mph 84% 0 in 0 W/m2
05:44 32.2 °F 27.7 °F 30.3 in NW 2.1 mph 3.5 mph 83.6% 0 in 0 W/m2
05:49 31.8 °F 27.5 °F 30.3 in NW 1.2 mph 3.5 mph 83.8% 0 in 0 W/m2
05:54 31.6 °F 27.3 °F 30.3 in NW 1.2 mph 2.3 mph 84% 0 in 0 W/m2
05:59 31.3 °F 27 °F 30.3 in NW 2.4 mph 4 mph 84% 0 in 0 W/m2
06:00 31.3 °F 27 °F 30.3 in NW 2 mph 4 mph 84% 0 in 0 W/m2
06:19 32.2 °F 27.1 °F 30.3 in WNW 2.7 mph 4 mph 81.2% 0 in 0 W/m2
06:24 32.4 °F 27.1 °F 30.3 in WNW 2.5 mph 3.5 mph 81% 0 in 0 W/m2
06:29 32.2 °F 27 °F 30.3 in NW 2.5 mph 4 mph 81% 0 in 0 W/m2
06:34 32 °F 26.8 °F 30.3 in NW 2.4 mph 4 mph 81% 0 in 0 W/m2
06:39 31.5 °F 26.6 °F 30.3 in NW 1.7 mph 3.5 mph 81.8% 0 in 0 W/m2
06:44 31.6 °F 26.4 °F 30.3 in NW 1.7 mph 3.5 mph 81.2% 0 in 0 W/m2
06:49 31.6 °F 26.4 °F 30.3 in NW 2.1 mph 3.5 mph 81.1% 0 in 0 W/m2
06:54 31.6 °F 26.2 °F 30.3 in NW 1.7 mph 3 mph 80.5% 0 in 0 W/m2
06:59 31.5 °F 25.9 °F 30.3 in WNW 2.2 mph 3.5 mph 79.6% 0 in 0 W/m2
07:04 31.6 °F 25.7 °F 30.3 in NW 2.7 mph 4 mph 78.7% 0 in 5 W/m2
07:09 31.6 °F 25.5 °F 30.3 in WNW 2.9 mph 4 mph 78.2% 0 in 7 W/m2
07:14 31.5 °F 25.5 °F 30.3 in NW 2.5 mph 4 mph 78.7% 0 in 9 W/m2
07:19 31.1 °F 25.3 °F 30.3 in NW 1.9 mph 3.5 mph 79% 0 in 9 W/m2
07:24 30.7 °F 25.2 °F 30.3 in NW 1.7 mph 3.5 mph 79.3% 0 in 11 W/m2
07:29 30.7 °F 25.3 °F 30.3 in NW 1.4 mph 3.5 mph 80.1% 0 in 12 W/m2
07:34 30.7 °F 25.5 °F 30.3 in NW 1.4 mph 3 mph 80.4% 0 in 16 W/m2
07:39 30.4 °F 25.3 °F 30.3 in NW 1.4 mph 2.3 mph 81% 0 in 32 W/m2
07:44 30.2 °F 25.2 °F 30.3 in WNW 1.3 mph 3 mph 81.4% 0 in 49 W/m2
07:49 30.4 °F 25.3 °F 30.3 in WNW 1.8 mph 3.5 mph 81.1% 0 in 65 W/m2
07:54 30.9 °F 25.3 °F 30.3 in WNW 1.9 mph 3.5 mph 79.8% 0 in 79 W/m2
07:59 32.5 °F 26.4 °F 30.3 in NW 0.9 mph 3.5 mph 77.9% 0 in 93 W/m2
08:00 32.7 °F 26.2 °F 30.3 in NW 1 mph 3 mph 77% 0 in 93 W/m2
08:19 35.6 °F 27.7 °F 30.3 in NNW 1.1 mph 2.3 mph 72.3% 0 in 155 W/m2
08:24 36.7 °F 27.7 °F 30.3 in NNW 1.6 mph 2.3 mph 69.4% 0 in 179 W/m2
08:29 38.1 °F 27.5 °F 30.3 in NW 1.4 mph 3.5 mph 65.2% 0 in 193 W/m2
08:34 38.8 °F 28 °F 30.3 in WNW 1.8 mph 3.5 mph 65% 0 in 213 W/m2
08:39 39.6 °F 27.5 °F 30.3 in NW 1.3 mph 3.5 mph 62% 0 in 220 W/m2
08:44 39.9 °F 27.7 °F 30.3 in North 2.3 mph 3.5 mph 61.4% 0 in 151 W/m2
08:49 40.1 °F 28.2 °F 30.3 in NNW 1.6 mph 4 mph 62.5% 0 in 199 W/m2
08:54 40.1 °F 28.4 °F 30.3 in NW 1.4 mph 4 mph 62.6% 0 in 185 W/m2
08:59 40.6 °F 28.4 °F 30.3 in NW 1 mph 2.3 mph 61.6% 0 in 276 W/m2
09:04 41.7 °F 27.3 °F 30.3 in NNW 1.1 mph 2.3 mph 56.5% 0 in 299 W/m2
09:09 42.4 °F 27.1 °F 30.4 in NNW 1.6 mph 3.5 mph 54.1% 0 in 309 W/m2
09:14 43.2 °F 27 °F 30.4 in NNW 1.4 mph 2.3 mph 52.7% 0 in 278 W/m2
09:19 43.9 °F 27.1 °F 30.4 in NNW 1.5 mph 3.5 mph 51.8% 0 in 343 W/m2
09:24 44.2 °F 27.7 °F 30.4 in NW 1.2 mph 3 mph 51.8% 0 in 359 W/m2
09:29 44.8 °F 27.9 °F 30.4 in NW 1.4 mph 2.3 mph 51.4% 0 in 334 W/m2
09:34 45.1 °F 26.8 °F 30.3 in NW 1.4 mph 2.3 mph 48.6% 0 in 334 W/m2
09:39 46 °F 24.3 °F 30.4 in NNW 0.6 mph 3 mph 42.3% 0 in 392 W/m2
09:44 46.2 °F 24.8 °F 30.4 in North 1.3 mph 4 mph 42.9% 0 in 221 W/m2
09:49 46.2 °F 24.3 °F 30.4 in NNE 1 mph 4 mph 42% 0 in 304 W/m2
09:54 46.9 °F 24.3 °F 30.4 in NNE 1.7 mph 4 mph 40.8% 0 in 450 W/m2
09:59 47.5 °F 22.3 °F 30.4 in NNW 1.5 mph 4 mph 36.9% 0 in 439 W/m2
10:00 47.5 °F 20.5 °F 30.4 in NNW 1 mph 3 mph 34% 0 in 346 W/m2
10:19 48.4 °F 20.1 °F 30.4 in East 1.7 mph 5 mph 32.4% 0 in 473 W/m2
10:24 48.6 °F 20.7 °F 30.4 in ENE 2.9 mph 5 mph 32.9% 0 in 362 W/m2
10:25 49.1 °F 20.5 °F 30.4 in North 3 mph 4 mph 32% 0 in 381 W/m2
10:38 49.1 °F 20.7 °F 30.3 in NNE 2.5 mph 3.5 mph 32.2% 0 in 376 W/m2
10:44 49.1 °F 20.3 °F 30.3 in NNE 2.3 mph 3.5 mph 31.9% 0 in 376 W/m2
10:49 49.3 °F 21.7 °F 30.4 in ENE 1.7 mph 3.5 mph 33.7% 0 in 554 W/m2
10:54 49.6 °F 22.3 °F 30.3 in North 1.6 mph 3.5 mph 34% 0 in 543 W/m2
10:59 50 °F 20.7 °F 30.3 in ENE 2.7 mph 5 mph 31.2% 0 in 548 W/m2
11:04 49.6 °F 22.1 °F 30.3 in North 3.2 mph 5 mph 33.6% 0 in 522 W/m2
11:09 50.2 °F 22.1 °F 30.3 in ENE 3.1 mph 7 mph 32.9% 0 in 566 W/m2
11:14 50.4 °F 20.7 °F 30.3 in ESE 4.4 mph 7 mph 31% 0 in 566 W/m2
11:19 50.5 °F 23.4 °F 30.3 in East 2.5 mph 7 mph 34.4% 0 in 561 W/m2
11:24 50.9 °F 20.7 °F 30.3 in NE 2.5 mph 6 mph 30.2% 0 in 566 W/m2
11:29 50.5 °F 19.4 °F 30.3 in East 2.5 mph 5 mph 29% 0 in 573 W/m2
11:34 50.7 °F 21 °F 30.3 in NE 1.7 mph 7 mph 30.8% 0 in 578 W/m2
11:39 51.3 °F 18.5 °F 30.3 in ENE 3.5 mph 7 mph 27.2% 0 in 584 W/m2
11:44 51.3 °F 20.8 °F 30.3 in NE 2.4 mph 7 mph 30.2% 0 in 587 W/m2
11:49 51.6 °F 21 °F 30.3 in NE 2.9 mph 7 mph 29.9% 0 in 591 W/m2
11:54 51.6 °F 19.6 °F 30.3 in ENE 3.9 mph 10.4 mph 28% 0 in 596 W/m2
11:59 52 °F 21.6 °F 30.3 in NE 4.2 mph 10.4 mph 30.2% 0 in 596 W/m2
12:00 52.2 °F 21.6 °F 30.3 in NE 5 mph 9 mph 30% 0 in 596 W/m2
12:19 51.8 °F 19.6 °F 30.3 in ESE 2.2 mph 6.9 mph 27.8% 0 in 603 W/m2
12:24 51.8 °F 19.9 °F 30.3 in ENE 2.3 mph 7 mph 28.3% 0 in 606 W/m2
12:29 52.7 °F 21.7 °F 30.3 in East 4.1 mph 8 mph 29.6% 0 in 608 W/m2
12:34 52.7 °F 19.6 °F 30.3 in NNE 4.5 mph 8.1 mph 27% 0 in 608 W/m2
12:39 52.7 °F 19.8 °F 30.3 in NW 2 mph 8 mph 27.5% 0 in 610 W/m2
12:44 52.7 °F 20.3 °F 30.3 in NE 1.3 mph 5 mph 27.9% 0 in 610 W/m2
12:49 52.7 °F 20.8 °F 30.3 in East 1.8 mph 8 mph 28.6% 0 in 610 W/m2
12:53 53.1 °F 21.6 °F 30.3 in ENE 4.5 mph 8.1 mph 29% 0 in 608 W/m2
12:55 53.2 °F 19.2 °F 30.3 in ENE 5 mph 8 mph 26% 0 in 0 W/m2
13:10 53.6 °F 19.6 °F 30.3 in NE 5 mph 10 mph 26% 0 in 598 W/m2
13:19 53.1 °F 20.8 °F 30.3 in East 8.4 mph 11.5 mph 28% 0 in 594 W/m2
13:24 52.9 °F 20.5 °F 30.3 in ESE 7.1 mph 12 mph 27.8% 0 in 591 W/m2
13:29 52.7 °F 20.5 °F 30.3 in NE 6 mph 12 mph 27.9% 0 in 587 W/m2
13:34 53.8 °F 23 °F 30.3 in North 4 mph 12 mph 30.1% 0 in 584 W/m2
13:39 54.1 °F 20.3 °F 30.3 in NNE 3.8 mph 11.5 mph 26.4% 0 in 582 W/m2
13:44 53.8 °F 18.9 °F 30.3 in ENE 2.9 mph 12 mph 25.1% 0 in 578 W/m2
13:49 53.6 °F 19.9 °F 30.3 in East 4.5 mph 12 mph 26.5% 0 in 571 W/m2
13:54 53.8 °F 19.4 °F 30.3 in ENE 5.6 mph 12 mph 25.8% 0 in 571 W/m2
13:59 53.6 °F 18.5 °F 30.3 in ENE 3.6 mph 12 mph 25% 0 in 557 W/m2
14:04 53.8 °F 20.1 °F 30.3 in ENE 1.1 mph 8 mph 26.5% 0 in 548 W/m2
14:09 54 °F 21 °F 30.3 in NNE 3.2 mph 9 mph 27.3% 0 in 541 W/m2
14:14 54.3 °F 21.2 °F 30.3 in NNE 4.5 mph 9.2 mph 27.1% 0 in 534 W/m2
14:19 54 °F 19.9 °F 30.3 in NNW 1.6 mph 9 mph 26.1% 0 in 531 W/m2
14:24 54.3 °F 20.1 °F 30.3 in NNE 2.7 mph 7 mph 25.9% 0 in 526 W/m2
14:29 54.3 °F 19.6 °F 30.3 in ENE 5.7 mph 10.4 mph 25.5% 0 in 517 W/m2
14:34 54 °F 19.8 °F 30.3 in SE 2.4 mph 10 mph 25.9% 0 in 508 W/m2
14:39 54.1 °F 19 °F 30.3 in SSW 2.5 mph 5 mph 25.1% 0 in 501 W/m2
14:44 54.3 °F 19.9 °F 30.3 in WNW 2.9 mph 5 mph 25.8% 0 in 492 W/m2
14:49 54.7 °F 21.6 °F 30.3 in NNE 3.6 mph 8 mph 27.3% 0 in 482 W/m2
14:54 54.3 °F 20.1 °F 30.3 in ENE 4.5 mph 8.1 mph 26% 0 in 469 W/m2
14:59 54.3 °F 19.9 °F 30.3 in NE 4.5 mph 8 mph 25.7% 0 in 461 W/m2
15:04 54.9 °F 21.7 °F 30.3 in NNE 6.1 mph 9.2 mph 27.4% 0 in 446 W/m2
15:09 55 °F 22.5 °F 30.3 in NNE 4.3 mph 9 mph 28% 0 in 443 W/m2
15:14 54.7 °F 20.5 °F 30.3 in ENE 3.2 mph 7 mph 26% 0 in 432 W/m2
15:19 54.7 °F 21.2 °F 30.3 in SE 2.4 mph 7 mph 26.9% 0 in 420 W/m2
15:23 54.3 °F 19.6 °F 30.3 in NE 1.4 mph 7 mph 25.6% 0 in 408 W/m2
15:29 54.7 °F 20.7 °F 30.3 in WSW 1.9 mph 5 mph 26.3% 0 in 397 W/m2
15:34 54.7 °F 19.9 °F 30.3 in SSW 3.4 mph 6 mph 25.6% 0 in 385 W/m2
15:39 54.9 °F 20.8 °F 30.3 in SW 2.1 mph 6 mph 26.3% 0 in 373 W/m2
15:44 54.7 °F 21 °F 30.3 in ESE 3.2 mph 10 mph 26.6% 0 in 360 W/m2
15:49 54.1 °F 18.7 °F 30.3 in East 3.8 mph 10.4 mph 24.7% 0 in 350 W/m2
15:54 54 °F 18.9 °F 30.3 in East 1.4 mph 10 mph 25% 0 in 336 W/m2
15:59 54.3 °F 19.8 °F 30.3 in NE 1.2 mph 5 mph 25.7% 0 in 323 W/m2
16:04 54.7 °F 20.8 °F 30.3 in NE 1.6 mph 3.5 mph 26.5% 0 in 311 W/m2
16:09 54.7 °F 20.7 °F 30.3 in ESE 2.4 mph 7 mph 26.2% 0 in 297 W/m2
16:14 54.5 °F 20.5 °F 30.3 in East 3 mph 7 mph 26.1% 0 in 283 W/m2
16:19 54.3 °F 20.5 °F 30.3 in NNE 1.9 mph 7 mph 26.3% 0 in 269 W/m2
16:24 54.7 °F 20.1 °F 30.3 in NNW 1.6 mph 3.5 mph 25.6% 0 in 255 W/m2
16:29 54.5 °F 20.3 °F 30.3 in NE 3 mph 6 mph 26% 0 in 239 W/m2
16:34 54.1 °F 20.5 °F 30.3 in NE 1.6 mph 6 mph 26.5% 0 in 221 W/m2
16:39 54.5 °F 20.5 °F 30.3 in NNW 2.5 mph 5 mph 26.1% 0 in 206 W/m2
16:44 54.1 °F 20.3 °F 30.3 in NE 4.2 mph 7 mph 26.3% 0 in 193 W/m2
16:49 54 °F 19.6 °F 30.3 in NW 1.4 mph 7 mph 25.7% 0 in 178 W/m2
16:54 53.8 °F 19.9 °F 30.3 in SW 1.4 mph 3.5 mph 26.4% 0 in 162 W/m2
16:59 53.6 °F 20.8 °F 30.3 in NE 2.5 mph 5 mph 27.5% 0 in 149 W/m2
17:04 53.8 °F 21 °F 30.3 in NE 2.5 mph 6 mph 27.5% 0 in 132 W/m2
17:09 53.6 °F 21 °F 30.3 in ENE 3.9 mph 7 mph 27.8% 0 in 114 W/m2
17:14 53.4 °F 21.2 °F 30.3 in ENE 2.9 mph 7 mph 28% 0 in 100 W/m2
17:19 53.4 °F 21.6 °F 30.3 in ENE 3.3 mph 6 mph 28.7% 0 in 86 W/m2
17:24 53.2 °F 22.1 °F 30.3 in ENE 4.8 mph 8.1 mph 29.5% 0 in 69 W/m2
17:29 52.9 °F 22.8 °F 30.3 in East 4.3 mph 8.1 mph 30.9% 0 in 58 W/m2
17:34 52.2 °F 23.9 °F 30.3 in East 3.7 mph 8 mph 33% 0 in 40 W/m2
17:39 51.6 °F 24.3 °F 30.3 in East 4.1 mph 8 mph 34.1% 0 in 26 W/m2
17:44 51.1 °F 24.1 °F 30.3 in East 5.5 mph 8.1 mph 34.8% 0 in 21 W/m2
17:49 50.7 °F 24.4 °F 30.3 in ESE 4.8 mph 8.1 mph 35.8% 0 in 16 W/m2
17:54 50.2 °F 24.3 °F 30.3 in ESE 5.8 mph 8.1 mph 36% 0 in 11 W/m2
17:59 49.8 °F 23.9 °F 30.3 in ESE 4.7 mph 8 mph 36% 0 in 7 W/m2
18:04 49.5 °F 24.1 °F 30.3 in ESE 4 mph 7 mph 36.7% 0 in 5 W/m2
18:09 49.1 °F 23.9 °F 30.3 in ESE 2.3 mph 5 mph 37% 0 in 0 W/m2
18:14 48.7 °F 24.1 °F 30.3 in ESE 2.9 mph 5 mph 37.8% 0 in 0 W/m2
18:19 48.6 °F 24.6 °F 30.3 in East 1.6 mph 5 mph 38.9% 0 in 0 W/m2
18:24 48 °F 25.2 °F 30.3 in East 0.8 mph 3 mph 40.4% 0 in 0 W/m2
18:29 47.5 °F 25.2 °F 30.3 in ESE 1.2 mph 2.3 mph 41.4% 0 in 0 W/m2
18:34 47.3 °F 25.2 °F 30.3 in ESE 1.3 mph 2.3 mph 41.7% 0 in 0 W/m2
18:39 46.8 °F 25.5 °F 30.3 in ESE 1.6 mph 3.5 mph 43.2% 0 in 0 W/m2
18:44 46.6 °F 25.7 °F 30.3 in ESE 1.4 mph 3.5 mph 43.8% 0 in 0 W/m2
18:49 46.2 °F 26.2 °F 30.3 in ESE 1 mph 3 mph 45.5% 0 in 0 W/m2
18:54 45.7 °F 26.4 °F 30.3 in ESE 0.9 mph 2.3 mph 46.7% 0 in 0 W/m2
18:59 45.3 °F 26.4 °F 30.3 in ESE 0.7 mph 2.3 mph 47.3% 0 in 0 W/m2
19:04 45.1 °F 27.1 °F 30.3 in SE 1.2 mph 2.3 mph 49.1% 0 in 0 W/m2
19:09 45 °F 26.6 °F 30.3 in SE 0.5 mph 2 mph 48.5% 0 in 0 W/m2
19:14 44.8 °F 27.3 °F 30.3 in Calm   1 mph 50.2% 0 in 0 W/m2
19:19 44.8 °F 27.7 °F 30.4 in Calm     51.2% 0 in 0 W/m2
19:24 44.8 °F 27.1 °F 30.4 in Calm     49.5% 0 in 0 W/m2
19:29 44.8 °F 27.3 °F 30.4 in SE 0.6 mph 2.3 mph 50% 0 in 0 W/m2
19:34 44.6 °F 27 °F 30.4 in SE 1 mph 2.3 mph 50% 0 in 0 W/m2
19:39 43.9 °F 26.4 °F 30.4 in WSW 2 mph 4 mph 50.1% 0 in 0 W/m2
19:44 42.6 °F 26.6 °F 30.4 in WNW 2.3 mph 4 mph 52.8% 0 in 0 W/m2
19:49 42.4 °F 26.1 °F 30.4 in WNW 2.9 mph 4 mph 52% 0 in 0 W/m2
19:54 43 °F 25.9 °F 30.4 in NW 3.6 mph 5 mph 50.6% 0 in 0 W/m2
19:59 43.3 °F 26.4 °F 30.4 in NW 3.8 mph 6 mph 51% 0 in 0 W/m2
20:04 43.5 °F 26.6 °F 30.4 in NW 3.4 mph 6 mph 50.8% 0 in 0 W/m2
20:09 43.7 °F 26.6 °F 30.4 in NW 2.7 mph 5 mph 50.5% 0 in 0 W/m2
20:14 43.7 °F 26.6 °F 30.4 in NW 2.1 mph 5 mph 50.8% 0 in 0 W/m2
20:19 43.5 °F 26.1 °F 30.4 in NW 2.3 mph 4 mph 50.1% 0 in 0 W/m2
20:24 43.7 °F 26.2 °F 30.4 in NW 2.7 mph 4 mph 50.3% 0 in 0 W/m2
20:29 43.5 °F 26.4 °F 30.4 in NW 2.4 mph 4 mph 50.4% 0 in 0 W/m2
20:34 43.5 °F 26.1 °F 30.4 in NW 1.6 mph 4 mph 49.9% 0 in 0 W/m2
20:39 43.7 °F 26.2 °F 30.4 in NW 1.6 mph 3.5 mph 49.9% 0 in 0 W/m2
20:44 43.3 °F 26.4 °F 30.4 in NW 1.9 mph 3.5 mph 51% 0 in 0 W/m2
20:49 43.3 °F 26.1 °F 30.4 in NNW 1.7 mph 3.5 mph 50% 0 in 0 W/m2
20:54 43.3 °F 26.2 °F 30.4 in NNW 1.4 mph 3.5 mph 50.6% 0 in 0 W/m2
20:59 43.2 °F 27.1 °F 30.4 in NNW 0.9 mph 3 mph 52.9% 0 in 0 W/m2
21:04 42.4 °F 27.5 °F 30.4 in NNW 0.1 mph 2 mph 54.9% 0 in 0 W/m2
21:09 42.3 °F 27.1 °F 30.4 in NNW 0.1 mph 1.2 mph 54.7% 0 in 0 W/m2
21:14 41.5 °F 27.3 °F 30.4 in Calm   1 mph 56.6% 0 in 0 W/m2
21:19 41 °F 28 °F 30.4 in East 1 mph 2.3 mph 59.8% 0 in 0 W/m2
21:24 40.5 °F 28.4 °F 30.4 in East 1.4 mph 2.3 mph 61.8% 0 in 0 W/m2
21:29 40.3 °F 28.9 °F 30.4 in ENE 1 mph 2.3 mph 63.9% 0 in 0 W/m2
21:34 40.1 °F 29.7 °F 30.4 in ENE 0.9 mph 2.3 mph 65.9% 0 in 0 W/m2
21:39 39.7 °F 29.7 °F 30.4 in East 1.9 mph 5 mph 67% 0 in 0 W/m2
21:44 39.6 °F 29.3 °F 30.4 in ESE 2.6 mph 5 mph 66.9% 0 in 0 W/m2
21:49 39.4 °F 29.3 °F 30.4 in ESE 3.1 mph 5 mph 66.9% 0 in 0 W/m2
21:54 39.4 °F 29.5 °F 30.4 in East 2.1 mph 5 mph 67.7% 0 in 0 W/m2
21:59 39.4 °F 30 °F 30.4 in ESE 1.9 mph 3.5 mph 68.8% 0 in 0 W/m2
22:04 39.4 °F 30.2 °F 30.4 in ESE 0.3 mph 3.5 mph 69.4% 0 in 0 W/m2
22:09 39.4 °F 30 °F 30.4 in Calm     68.9% 0 in 0 W/m2
22:14 39.6 °F 29.8 °F 30.4 in Calm     68% 0 in 0 W/m2
22:19 39 °F 29.7 °F 30.4 in Calm     68.8% 0 in 0 W/m2
22:24 38.8 °F 29.5 °F 30.4 in Calm     68.5% 0 in 0 W/m2
22:29 39 °F 29.7 °F 30.4 in Calm     68.9% 0 in 0 W/m2
22:34 38.8 °F 29.3 °F 30.4 in Calm     68.8% 0 in 0 W/m2
22:39 38.1 °F 28.4 °F 30.4 in Calm     67.4% 0 in 0 W/m2
22:44 37.4 °F 27.7 °F 30.4 in Calm     67.8% 0 in 0 W/m2
22:49 37.4 °F 27.5 °F 30.4 in Calm     67.2% 0 in 0 W/m2
22:54 37.4 °F 27.3 °F 30.4 in Calm     66.8% 0 in 0 W/m2
22:59 37.4 °F 27 °F 30.4 in Calm     66% 0 in 0 W/m2
23:04 37.2 °F 27.3 °F 30.4 in Calm     67.1% 0 in 0 W/m2
23:09 37.6 °F 27.5 °F 30.4 in Calm     66.7% 0 in 0 W/m2
23:14 37.6 °F 27.7 °F 30.4 in Calm     67.5% 0 in 0 W/m2
23:19 37 °F 27.3 °F 30.4 in Calm     67.4% 0 in 0 W/m2
23:24 36.9 °F 27.1 °F 30.4 in Calm     67.7% 0 in 0 W/m2
23:29 36.5 °F 27.3 °F 30.4 in Calm     69.2% 0 in 0 W/m2
23:34 36.1 °F 27.5 °F 30.4 in Calm     70.4% 0 in 0 W/m2
23:39 35.8 °F 27.5 °F 30.4 in Calm     71.2% 0 in 0 W/m2
23:44 35.8 °F 27.7 °F 30.4 in Calm     72% 0 in 0 W/m2
23:49 35.8 °F 27.9 °F 30.4 in Calm     72.6% 0 in 0 W/m2
23:54 36 °F 28 °F 30.4 in NNE 1.1 mph 3.5 mph 72.4% 0 in 0 W/m2
23:59 36.1 °F 28.4 °F 30.4 in NNE 1.4 mph 3.5 mph 73% 0 in 0 W/m2
Stazione Meteorologica MeteoMincio Rivalta s/M (MN)
Con i complimenti di Weather Underground - 2 mb


METEO PILLOLE
La più disastrosa inondazione causata da cicloni
Bangladesh
Nel novembre 1970 un ciclone nel Golfo del Bangladesh uccise circa 300.000 persone.

Do NOT follow this link or you will be banned from the site!